Time;durP1;ratioP1;P1;durP2;ratioP2;P2;SDS_P1;SDS_P2;PMS_P1;PMS_P2;Temp;Humidity;BMP_temperature;BMP_pressure;BME280_temperature;BME280_humidity;BME280_pressure;Samples;Min_cycle;Max_cycle;Signal;HPM_P1;HPM_P2
2022/01/26 00:07:56;;;;;;;906.90;352.10;;;4.50;99.90;;;;;;5145864;27;20448;-81
2022/01/26 00:10:24;;;;;;;796.63;265.57;;;4.50;99.90;;;;;;5144378;27;20945;-81
2022/01/26 00:12:53;;;;;;;305.40;144.10;;;4.50;99.90;;;;;;5124988;28;20454;-81
2022/01/26 00:15:24;;;;;;;383.97;198.20;;;4.50;99.90;;;;;;5126005;27;20452;-80
2022/01/26 00:17:54;;;;;;;518.00;214.93;;;4.50;99.90;;;;;;5123424;28;20466;-80
2022/01/26 00:20:26;;;;;;;1227.23;380.43;;;4.50;99.90;;;;;;5124550;28;20478;-80
2022/01/26 00:23:05;;;;;;;532.17;230.53;;;4.50;99.90;;;;;;5123485;28;20446;-80
2022/01/26 00:25:42;;;;;;;308.33;181.30;;;4.50;99.90;;;;;;5126142;27;20454;-81
2022/01/26 00:39:13;;;;;;;835.17;305.83;;;4.40;99.90;;;;;;5102957;28;20500;-80
2022/01/26 00:41:44;;;;;;;609.67;245.00;;;4.40;99.90;;;;;;5104844;28;20539;-81
2022/01/26 00:44:12;;;;;;;676.23;294.00;;;4.40;99.90;;;;;;5104835;28;20452;-80
2022/01/26 00:46:48;;;;;;;421.07;179.07;;;4.40;99.90;;;;;;5102573;28;20456;-80
2022/01/26 00:49:20;;;;;;;659.33;297.90;;;4.40;99.90;;;;;;5100727;28;20439;-80
2022/01/26 00:51:48;;;;;;;305.50;182.33;;;4.40;99.90;;;;;;5129498;27;20470;-80
2022/01/26 00:54:17;;;;;;;421.00;163.03;;;4.50;99.90;;;;;;5142778;27;20545;-79
2022/01/26 00:56:45;;;;;;;308.90;158.33;;;4.40;99.90;;;;;;5142674;27;20821;-80
2022/01/26 00:59:26;;;;;;;650.60;287.83;;;4.40;99.90;;;;;;5142609;27;20446;-80
2022/01/26 01:01:58;;;;;;;687.37;277.43;;;4.40;99.90;;;;;;5126345;27;20451;-80
2022/01/26 01:04:28;;;;;;;686.37;276.17;;;4.40;99.90;;;;;;5121634;27;20468;-80
2022/01/26 01:07:00;;;;;;;872.47;293.43;;;4.40;99.90;;;;;;5122514;27;20473;-80
2022/01/26 01:09:32;;;;;;;310.77;161.73;;;4.40;99.90;;;;;;5130290;27;20457;-80
2022/01/26 01:12:02;;;;;;;388.47;154.17;;;4.40;99.90;;;;;;5140614;27;20962;-80
2022/01/26 01:14:36;;;;;;;286.13;127.37;;;4.40;99.90;;;;;;5125567;27;20956;-80
2022/01/26 01:17:09;;;;;;;744.90;282.57;;;4.40;99.90;;;;;;5121042;28;20502;-80
2022/01/26 01:19:42;;;;;;;313.33;159.50;;;4.40;99.90;;;;;;5121107;28;20442;-80
2022/01/26 01:22:45;;;;;;;526.53;228.17;;;4.40;99.90;;;;;;5130117;27;20457;-80
2022/01/26 01:30:58;;;;;;;826.03;384.13;;;4.30;99.90;;;;;;5125967;27;20459;-80
2022/01/26 01:33:30;;;;;;;658.47;316.33;;;4.30;99.90;;;;;;5120948;28;20448;-80
2022/01/26 01:36:00;;;;;;;380.50;204.87;;;4.30;99.90;;;;;;5120699;28;20953;-80
2022/01/26 01:38:31;;;;;;;824.07;331.80;;;4.30;99.90;;;;;;5121221;28;20439;-80
2022/01/26 01:40:59;;;;;;;431.77;214.57;;;4.30;99.90;;;;;;5122584;27;20471;-80
2022/01/26 01:43:28;;;;;;;761.60;273.97;;;4.30;99.90;;;;;;5127281;27;20541;-80
2022/01/26 01:45:56;;;;;;;546.57;251.83;;;4.30;99.90;;;;;;5125699;27;20478;-80
2022/01/26 01:48:28;;;;;;;531.60;239.57;;;4.30;99.90;;;;;;5120671;28;20821;-80
2022/01/26 01:51:03;;;;;;;536.97;237.73;;;4.30;99.90;;;;;;5120022;28;20505;-80
2022/01/26 01:53:35;;;;;;;737.87;302.63;;;4.30;99.90;;;;;;5122958;27;20940;-80
2022/01/26 01:56:07;;;;;;;452.67;224.53;;;4.30;99.90;;;;;;5126953;27;20483;-80
2022/01/26 01:58:36;;;;;;;699.97;281.77;;;4.30;99.90;;;;;;5140358;27;20489;-80
2022/01/26 02:01:05;;;;;;;290.07;160.30;;;4.30;99.90;;;;;;5140881;27;20954;-80
2022/01/26 02:03:34;;;;;;;625.47;256.10;;;4.30;99.90;;;;;;5140760;27;20450;-80
2022/01/26 02:06:04;;;;;;;841.17;331.83;;;4.30;99.90;;;;;;5140685;27;20465;-80
2022/01/26 02:08:32;;;;;;;461.40;173.50;;;4.30;99.90;;;;;;5141576;27;20434;-80
2022/01/26 02:11:03;;;;;;;380.00;164.67;;;4.30;99.90;;;;;;5139150;27;20450;-80
2022/01/26 02:13:39;;;;;;;385.97;225.83;;;4.30;99.90;;;;;;5128725;27;20458;-80
2022/01/26 02:16:14;;;;;;;686.57;299.00;;;4.30;99.90;;;;;;5119614;28;20438;-80
2022/01/26 02:18:59;;;;;;;915.70;335.17;;;4.30;99.90;;;;;;5119942;28;20439;-80
2022/01/26 02:21:56;;;;;;;740.77;343.23;;;4.30;99.90;;;;;;5121730;27;20438;-80
2022/01/26 02:52:23;;;;;;;586.50;274.03;;;4.20;99.90;;;;;;5140732;27;20443;-80
2022/01/26 02:55:10;;;;;;;863.70;327.57;;;4.20;99.90;;;;;;5140321;27;20430;-80
2022/01/26 02:57:51;;;;;;;864.83;337.13;;;4.20;99.90;;;;;;5139835;28;20564;-80
2022/01/26 03:00:28;;;;;;;709.10;310.73;;;4.20;99.90;;;;;;5139420;27;20426;-79
2022/01/26 03:03:10;;;;;;;996.13;370.17;;;4.20;99.90;;;;;;5100706;28;20427;-80
2022/01/26 03:05:47;;;;;;;939.90;356.33;;;4.20;99.90;;;;;;5098963;28;20525;-80
2022/01/26 03:08:15;;;;;;;379.67;213.97;;;4.20;99.90;;;;;;5098824;28;20550;-80
2022/01/26 03:10:49;;;;;;;614.27;245.97;;;4.20;99.90;;;;;;5116013;28;20469;-79
2022/01/26 03:13:22;;;;;;;1108.50;415.93;;;4.20;99.90;;;;;;5099058;28;20448;-80
2022/01/26 03:15:56;;;;;;;1327.37;411.30;;;4.20;99.90;;;;;;5101212;28;20524;-80
2022/01/26 03:21:16;;;;;;;987.40;350.07;;;4.20;99.90;;;;;;5093330;28;20889;-79
2022/01/26 03:29:39;;;;;;;1757.33;564.10;;;4.20;99.90;;;;;;5119382;28;20442;-79
2022/01/26 03:34:58;;;;;;;1999.90;688.97;;;4.20;99.90;;;;;;5119764;28;20947;-80
2022/01/26 03:37:34;;;;;;;1272.13;442.17;;;4.20;99.90;;;;;;5123272;28;20478;-80
2022/01/26 03:40:12;;;;;;;1921.43;614.67;;;4.20;99.90;;;;;;5124015;28;20445;-80
2022/01/26 03:42:41;;;;;;;1999.90;611.87;;;4.20;99.90;;;;;;5124903;28;20987;-80
2022/01/26 03:45:10;;;;;;;1747.23;526.67;;;4.20;99.90;;;;;;5122420;27;20476;-80
2022/01/26 03:47:38;;;;;;;1387.23;365.73;;;4.20;99.90;;;;;;5124755;27;20509;-80
2022/01/26 03:50:06;;;;;;;413.83;125.20;;;4.20;99.90;;;;;;5123653;28;20791;-80
2022/01/26 03:52:36;;;;;;;1461.57;442.47;;;4.20;99.90;;;;;;5121575;28;20455;-80
2022/01/26 03:55:05;;;;;;;679.40;226.40;;;4.20;99.90;;;;;;5121175;28;20488;-80
2022/01/26 03:57:33;;;;;;;998.23;291.83;;;4.10;99.90;;;;;;5122686;28;20471;-80
2022/01/26 04:00:06;;;;;;;1985.63;653.50;;;4.10;99.90;;;;;;5120995;28;20447;-80
2022/01/26 04:02:39;;;;;;;794.50;277.83;;;4.10;99.90;;;;;;5135375;27;20438;-80
2022/01/26 04:05:16;;;;;;;1157.30;426.17;;;4.20;99.90;;;;;;5141539;27;20497;-80
2022/01/26 04:07:46;;;;;;;1294.43;408.33;;;4.10;99.90;;;;;;5143137;27;20457;-80
2022/01/26 04:10:24;;;;;;;1705.33;471.90;;;4.10;99.90;;;;;;5142069;27;20449;-80
2022/01/26 04:12:52;;;;;;;1208.17;350.47;;;4.10;99.90;;;;;;5141810;27;20438;-80
2022/01/26 04:15:26;;;;;;;1141.27;325.70;;;4.10;99.90;;;;;;5141057;27;20454;-79
2022/01/26 04:17:55;;;;;;;865.37;275.07;;;4.10;99.90;;;;;;5137574;27;20472;-80
2022/01/26 04:20:28;;;;;;;1335.70;411.40;;;4.10;99.90;;;;;;5141139;27;20540;-80
2022/01/26 04:23:08;;;;;;;1643.23;457.50;;;4.10;99.90;;;;;;5141662;27;20437;-80
2022/01/26 04:25:38;;;;;;;1927.77;553.70;;;4.10;99.90;;;;;;5121235;27;20506;-80
2022/01/26 04:28:10;;;;;;;1950.33;548.23;;;4.00;99.90;;;;;;5121168;28;20480;-80
2022/01/26 04:30:40;;;;;;;1353.60;397.93;;;4.00;99.90;;;;;;5120388;28;20503;-80
2022/01/26 04:33:09;;;;;;;1959.10;588.43;;;4.00;99.90;;;;;;5120108;28;20447;-80
2022/01/26 04:35:41;;;;;;;1761.80;553.03;;;4.00;99.90;;;;;;5122218;28;20427;-80
2022/01/26 04:38:19;;;;;;;979.10;368.63;;;4.00;99.90;;;;;;5119287;28;20461;-80
2022/01/26 04:41:01;;;;;;;1919.70;572.87;;;4.00;99.90;;;;;;5125070;27;20457;-80
2022/01/26 04:43:34;;;;;;;1943.00;569.03;;;4.00;99.90;;;;;;5137924;27;20441;-80
2022/01/26 04:46:05;;;;;;;1999.90;712.50;;;4.00;99.90;;;;;;5142976;27;20463;-80
2022/01/26 04:48:33;;;;;;;1783.93;558.93;;;4.00;99.90;;;;;;5140134;27;20450;-80
2022/01/26 04:51:02;;;;;;;1999.90;714.67;;;4.00;99.90;;;;;;5140505;27;20474;-80
2022/01/26 04:53:30;;;;;;;1999.90;605.67;;;4.00;99.90;;;;;;5141436;27;20485;-80
2022/01/26 04:56:05;;;;;;;1896.90;543.13;;;4.00;99.90;;;;;;5140945;27;20497;-79
2022/01/26 04:58:46;;;;;;;1999.90;619.90;;;4.00;99.90;;;;;;5141153;27;20437;-80
2022/01/26 05:01:16;;;;;;;1287.23;407.83;;;3.90;99.90;;;;;;5136789;27;20455;-79
2022/01/26 05:03:55;;;;;;;1740.60;487.30;;;3.90;99.90;;;;;;5140442;27;20462;-80
2022/01/26 05:06:27;;;;;;;1971.67;607.07;;;4.00;99.90;;;;;;5140457;27;21005;-79
2022/01/26 05:08:58;;;;;;;1978.07;661.10;;;3.90;99.90;;;;;;5140871;27;20443;-80
2022/01/26 05:11:37;;;;;;;1988.47;629.13;;;3.90;99.90;;;;;;5141571;27;20430;-80
2022/01/26 05:14:10;;;;;;;1999.90;683.07;;;3.90;99.90;;;;;;5141704;27;20885;-80
2022/01/26 05:16:41;;;;;;;1999.90;658.10;;;3.90;99.90;;;;;;5142414;27;20463;-80
2022/01/26 05:19:09;;;;;;;1312.40;426.30;;;3.90;99.90;;;;;;5143299;27;20977;-80
2022/01/26 05:21:38;;;;;;;1946.20;584.77;;;3.90;99.90;;;;;;5141956;27;20436;-80
2022/01/26 05:24:08;;;;;;;1589.10;449.53;;;3.90;99.90;;;;;;5142261;27;20448;-81
2022/01/26 05:26:36;;;;;;;1818.63;519.53;;;3.90;99.90;;;;;;5142107;27;20474;-80
2022/01/26 05:29:07;;;;;;;1831.17;488.70;;;3.90;99.90;;;;;;5143506;27;20432;-80
2022/01/26 05:31:36;;;;;;;1999.90;621.67;;;3.90;99.90;;;;;;5142321;27;20557;-80
2022/01/26 05:34:09;;;;;;;1999.90;660.27;;;3.90;99.90;;;;;;5141715;27;20435;-80
2022/01/26 05:36:37;;;;;;;1918.10;543.03;;;3.90;99.90;;;;;;5142390;27;20553;-80
2022/01/26 05:39:05;;;;;;;1856.93;539.13;;;3.90;99.90;;;;;;5141568;27;20448;-80
2022/01/26 05:41:34;;;;;;;1999.90;678.80;;;3.80;99.90;;;;;;5142845;27;20443;-80
2022/01/26 05:44:02;;;;;;;1999.90;658.60;;;3.80;99.90;;;;;;5141755;27;20541;-79
2022/01/26 05:46:36;;;;;;;1999.90;694.77;;;3.90;99.90;;;;;;5141586;27;20530;-80
2022/01/26 05:49:05;;;;;;;1628.07;519.17;;;3.80;99.90;;;;;;5141685;27;20445;-80
2022/01/26 05:51:34;;;;;;;1387.87;388.60;;;3.80;99.90;;;;;;5140693;27;21031;-80
2022/01/26 05:54:05;;;;;;;1636.23;449.27;;;3.80;99.90;;;;;;5141044;27;20548;-80
2022/01/26 05:56:33;;;;;;;1399.80;396.90;;;3.80;99.90;;;;;;5142594;27;20465;-79
2022/01/26 05:59:01;;;;;;;1585.97;493.60;;;3.80;99.90;;;;;;5141603;27;20470;-80
2022/01/26 06:01:29;;;;;;;1392.97;420.40;;;3.80;99.90;;;;;;5141093;27;20455;-79
2022/01/26 06:03:58;;;;;;;1704.47;551.77;;;3.80;99.90;;;;;;5141148;27;20455;-80
2022/01/26 06:06:32;;;;;;;1173.80;361.57;;;3.70;99.90;;;;;;5142752;27;20511;-80
2022/01/26 06:09:01;;;;;;;1863.43;515.80;;;3.80;99.90;;;;;;5140980;27;20482;-80
2022/01/26 06:11:36;;;;;;;1229.40;397.97;;;3.80;99.90;;;;;;5141704;27;20915;-80
2022/01/26 06:14:04;;;;;;;1897.43;541.63;;;3.80;99.90;;;;;;5141180;27;21086;-80
2022/01/26 06:16:33;;;;;;;1999.90;676.23;;;3.70;99.90;;;;;;5141126;27;20476;-80
2022/01/26 06:19:04;;;;;;;1985.37;573.20;;;3.70;99.90;;;;;;5140443;27;20526;-80
2022/01/26 06:21:32;;;;;;;1844.30;506.47;;;3.70;99.90;;;;;;5141794;27;20449;-80
2022/01/26 06:24:02;;;;;;;1483.97;466.40;;;3.70;99.90;;;;;;5141292;27;20448;-79
2022/01/26 06:26:30;;;;;;;1241.33;344.27;;;3.70;99.90;;;;;;5141125;27;20469;-79
2022/01/26 06:28:58;;;;;;;1172.20;386.67;;;3.60;99.90;;;;;;5142266;27;20439;-79
2022/01/26 06:31:29;;;;;;;968.20;377.03;;;3.60;99.90;;;;;;5140690;27;20443;-80
2022/01/26 06:34:01;;;;;;;1590.93;528.50;;;3.60;99.90;;;;;;5141077;27;20840;-80
2022/01/26 06:36:30;;;;;;;885.70;314.87;;;3.60;99.90;;;;;;5140191;27;20470;-79
2022/01/26 06:38:58;;;;;;;1273.40;436.17;;;3.60;99.90;;;;;;5142229;27;20472;-79
2022/01/26 06:41:31;;;;;;;1107.67;430.97;;;3.60;99.90;;;;;;5141169;27;20454;-80
2022/01/26 06:44:05;;;;;;;1506.67;484.47;;;3.60;99.90;;;;;;5140454;27;20513;-79
2022/01/26 06:46:43;;;;;;;1489.40;481.33;;;3.60;99.90;;;;;;5139795;27;20472;-80
2022/01/26 06:52:07;;;;;;;1999.90;592.63;;;3.60;99.90;;;;;;5093261;28;20897;-80
2022/01/26 06:54:35;;;;;;;1927.90;550.13;;;3.60;99.90;;;;;;5143280;27;20454;-80
2022/01/26 06:57:05;;;;;;;1516.37;519.13;;;3.50;99.90;;;;;;5142636;27;20839;-80
2022/01/26 06:59:33;;;;;;;1570.40;515.50;;;3.50;99.90;;;;;;5141851;28;20450;-80
2022/01/26 07:02:02;;;;;;;1744.37;470.30;;;3.60;99.90;;;;;;5141893;28;20457;-79
2022/01/26 07:04:30;;;;;;;1799.37;520.23;;;3.50;99.90;;;;;;5142690;28;20472;-80
2022/01/26 07:06:58;;;;;;;1608.00;554.27;;;3.50;99.90;;;;;;5142687;28;20474;-80
2022/01/26 07:09:28;;;;;;;1869.20;539.90;;;3.50;99.90;;;;;;5143284;27;20811;-80
2022/01/26 07:11:58;;;;;;;1307.37;446.50;;;3.50;99.90;;;;;;5148401;27;20426;-80
2022/01/26 07:19:48;;;;;;;1999.90;563.10;;;3.40;99.90;;;;;;5147194;27;20445;-80
2022/01/26 07:22:48;;;;;;;1806.50;607.97;;;3.40;99.90;;;;;;5148171;27;20446;-80
2022/01/26 07:25:16;;;;;;;1943.90;580.47;;;3.40;99.90;;;;;;5148643;27;20541;-81
2022/01/26 07:27:45;;;;;;;1967.50;610.70;;;3.40;99.90;;;;;;5148676;27;20477;-79
2022/01/26 07:30:21;;;;;;;1929.53;608.83;;;3.30;99.90;;;;;;5148029;27;20546;-79
2022/01/26 07:32:49;;;;;;;1773.17;513.20;;;3.30;99.90;;;;;;5147931;27;20527;-79
2022/01/26 07:35:18;;;;;;;1868.17;558.33;;;3.40;99.90;;;;;;5147316;27;20473;-80
2022/01/26 07:37:47;;;;;;;1557.23;478.80;;;3.30;99.90;;;;;;5147068;27;20572;-80
2022/01/26 07:40:16;;;;;;;1999.90;671.83;;;3.30;99.90;;;;;;5147221;27;20457;-80
2022/01/26 07:42:44;;;;;;;1999.90;721.73;;;3.30;99.90;;;;;;5148021;27;20770;-81
2022/01/26 07:45:24;;;;;;;1999.90;706.10;;;3.30;99.90;;;;;;5147867;27;20429;-80
2022/01/26 07:47:55;;;;;;;1999.90;777.90;;;3.20;99.90;;;;;;5147612;27;20465;-80
2022/01/26 07:50:24;;;;;;;1999.90;635.57;;;3.20;99.90;;;;;;5146852;27;20442;-80
2022/01/26 07:52:57;;;;;;;1999.90;615.23;;;3.20;99.90;;;;;;5147676;27;20544;-80
2022/01/26 07:55:28;;;;;;;1999.90;775.30;;;3.20;99.90;;;;;;5147382;27;20423;-81
2022/01/26 07:57:57;;;;;;;1963.93;593.57;;;3.20;99.90;;;;;;5147017;27;20490;-80
2022/01/26 08:00:27;;;;;;;1999.90;574.07;;;3.20;99.90;;;;;;5147683;27;20448;-81
2022/01/26 08:02:58;;;;;;;1999.90;645.60;;;3.20;99.90;;;;;;5147062;27;20520;-80
2022/01/26 08:05:27;;;;;;;1945.30;602.67;;;3.10;99.90;;;;;;5147407;27;20506;-80
2022/01/26 08:07:57;;;;;;;1986.47;636.80;;;3.20;99.90;;;;;;5145739;27;20559;-81
2022/01/26 08:10:32;;;;;;;1999.90;678.33;;;3.20;99.90;;;;;;5146334;27;20452;-80
2022/01/26 08:13:00;;;;;;;1999.90;611.77;;;3.20;99.90;;;;;;5146391;27;20442;-80
2022/01/26 08:15:30;;;;;;;1760.37;532.90;;;3.20;99.90;;;;;;5146398;27;20974;-82
2022/01/26 08:17:59;;;;;;;1238.73;456.47;;;3.20;99.90;;;;;;5146388;27;20495;-81
2022/01/26 08:20:27;;;;;;;1899.20;592.63;;;3.20;99.90;;;;;;5146888;27;20445;-80
2022/01/26 08:22:57;;;;;;;1963.13;623.13;;;3.20;99.90;;;;;;5145107;27;20457;-80
2022/01/26 08:25:28;;;;;;;1999.90;796.70;;;3.20;99.90;;;;;;5145174;27;20499;-79
2022/01/26 08:28:06;;;;;;;1999.90;652.70;;;3.20;99.90;;;;;;5146271;27;20500;-79
2022/01/26 08:30:38;;;;;;;1999.90;693.53;;;3.20;99.90;;;;;;5147308;27;20444;-80
2022/01/26 08:33:07;;;;;;;1999.90;629.07;;;3.20;99.90;;;;;;5148791;27;20820;-80
2022/01/26 08:35:39;;;;;;;1999.90;739.90;;;3.20;99.90;;;;;;5146660;27;20449;-80
2022/01/26 08:38:07;;;;;;;1999.90;650.60;;;3.30;99.90;;;;;;5146316;27;20585;-80
2022/01/26 08:40:35;;;;;;;1999.90;622.87;;;3.30;99.90;;;;;;5147442;27;20515;-80
2022/01/26 08:43:04;;;;;;;1999.90;633.17;;;3.30;99.90;;;;;;5145819;27;20457;-81
2022/01/26 08:45:34;;;;;;;1999.90;803.47;;;3.30;99.90;;;;;;5146973;27;20425;-80
2022/01/26 08:48:04;;;;;;;1999.90;683.80;;;3.30;99.90;;;;;;5146541;27;20526;-80
2022/01/26 08:50:33;;;;;;;1999.90;766.77;;;3.30;99.90;;;;;;5148096;27;20415;-80
2022/01/26 08:53:10;;;;;;;1999.90;637.00;;;3.30;99.90;;;;;;5145620;27;20436;-80
2022/01/26 08:55:40;;;;;;;1999.90;843.53;;;3.30;99.90;;;;;;5147672;27;20488;-80
2022/01/26 08:58:08;;;;;;;1999.90;886.87;;;3.30;99.90;;;;;;5146191;27;21005;-80
2022/01/26 09:00:37;;;;;;;1999.90;858.23;;;3.30;99.90;;;;;;5145449;27;20455;-80
2022/01/26 09:03:26;;;;;;;1999.90;955.87;;;3.30;99.90;;;;;;5146101;27;20448;-80
2022/01/26 09:05:56;;;;;;;1999.90;981.10;;;3.30;99.90;;;;;;5146056;27;20919;-80
2022/01/26 09:08:26;;;;;;;1999.90;909.27;;;3.30;99.90;;;;;;5146469;27;20485;-81
2022/01/26 09:10:59;;;;;;;1999.90;837.57;;;3.30;99.90;;;;;;5146049;27;20471;-80
2022/01/26 09:13:31;;;;;;;1999.90;985.33;;;3.30;99.90;;;;;;5147761;27;20431;-81
2022/01/26 09:16:03;;;;;;;1999.90;911.80;;;3.30;99.90;;;;;;5146260;27;20528;-81
2022/01/26 09:18:45;;;;;;;1999.90;999.90;;;3.30;99.90;;;;;;5146879;27;20442;-80
2022/01/26 09:21:15;;;;;;;1999.90;972.47;;;3.30;99.90;;;;;;5147331;27;20446;-80
2022/01/26 09:23:45;;;;;;;1999.90;867.37;;;3.30;99.90;;;;;;5146612;27;20440;-79
2022/01/26 09:26:13;;;;;;;1999.90;945.77;;;3.30;99.90;;;;;;5144415;27;20444;-79
2022/01/26 09:28:41;;;;;;;1999.90;925.67;;;3.30;99.90;;;;;;5145003;27;20473;-80
2022/01/26 09:31:15;;;;;;;1999.90;978.27;;;3.30;99.90;;;;;;5145462;27;20816;-80
2022/01/26 09:33:45;;;;;;;1999.90;963.10;;;3.30;99.90;;;;;;5145738;27;20546;-80
2022/01/26 09:36:13;;;;;;;1999.90;979.77;;;3.20;99.90;;;;;;5147307;27;20503;-80
2022/01/26 09:38:43;;;;;;;1999.90;999.03;;;3.20;99.90;;;;;;5145939;27;20457;-80
2022/01/26 09:41:13;;;;;;;1999.90;883.30;;;3.30;99.90;;;;;;5145484;27;20450;-80
2022/01/26 09:43:44;;;;;;;1999.90;999.90;;;3.30;99.90;;;;;;5146316;27;20426;-81
2022/01/26 09:46:13;;;;;;;1999.90;926.10;;;3.30;99.90;;;;;;5145048;27;20467;-80
2022/01/26 09:48:43;;;;;;;1999.90;996.20;;;3.30;99.90;;;;;;5145038;27;20484;-81
2022/01/26 09:51:15;;;;;;;1999.90;918.70;;;3.30;99.90;;;;;;5144956;27;20898;-80
2022/01/26 09:53:44;;;;;;;1999.90;999.90;;;3.30;99.90;;;;;;5144499;27;20446;-81
2022/01/26 09:56:12;;;;;;;1999.90;962.10;;;3.30;99.90;;;;;;5144944;27;20478;-80
2022/01/26 09:58:40;;;;;;;1999.90;977.77;;;3.30;99.90;;;;;;5146144;27;20438;-80
2022/01/26 10:01:08;;;;;;;1999.90;924.97;;;3.20;99.90;;;;;;5146068;27;20456;-80
2022/01/26 10:03:37;;;;;;;1999.90;886.27;;;3.20;99.90;;;;;;5145847;27;20491;-80
2022/01/26 10:06:07;;;;;;;1999.90;980.00;;;3.30;99.90;;;;;;5144826;27;20440;-80
2022/01/26 10:08:58;;;;;;;1999.90;942.33;;;3.30;99.90;;;;;;5146058;27;20512;-80
2022/01/26 10:19:58;;;;;;;1999.90;995.13;;;3.30;99.90;;;;;;5145732;27;20417;-80
2022/01/26 10:22:28;;;;;;;1999.90;957.23;;;3.30;99.90;;;;;;5144609;27;21002;-80
2022/01/26 10:25:07;;;;;;;1999.90;976.97;;;3.30;99.90;;;;;;5142880;27;20438;-79
2022/01/26 10:27:55;;;;;;;1999.90;984.33;;;3.30;99.90;;;;;;5142988;27;20510;-79
2022/01/26 10:30:26;;;;;;;1999.90;893.17;;;3.30;99.90;;;;;;5141770;27;20464;-79
2022/01/26 10:32:55;;;;;;;1999.90;791.17;;;3.30;99.90;;;;;;5143532;27;20488;-80
2022/01/26 10:35:23;;;;;;;1999.90;912.90;;;3.30;99.90;;;;;;5145816;27;20440;-79
2022/01/26 10:37:55;;;;;;;1999.90;898.97;;;3.30;99.90;;;;;;5144105;27;20454;-79
2022/01/26 10:40:28;;;;;;;1999.90;896.10;;;3.30;99.90;;;;;;5142575;27;20460;-79
2022/01/26 10:42:58;;;;;;;1999.90;996.97;;;3.30;99.90;;;;;;5145134;27;20426;-80
2022/01/26 10:45:51;;;;;;;1999.90;918.13;;;3.30;99.90;;;;;;5143623;27;20445;-80
2022/01/26 10:48:30;;;;;;;1999.90;933.10;;;3.30;99.90;;;;;;5143797;27;20488;-79
2022/01/26 10:51:31;;;;;;;1999.90;920.17;;;3.30;99.90;;;;;;5144296;27;20427;-80
2022/01/26 10:54:11;;;;;;;1999.90;995.33;;;3.30;99.90;;;;;;5144403;27;20462;-80
2022/01/26 10:56:41;;;;;;;1999.90;950.60;;;3.30;99.90;;;;;;5144092;27;20487;-80
2022/01/26 10:59:09;;;;;;;1999.90;888.20;;;3.30;99.90;;;;;;5145044;27;20875;-80
2022/01/26 11:01:38;;;;;;;1999.90;930.23;;;3.30;99.90;;;;;;5144750;28;20529;-81
2022/01/26 11:04:08;;;;;;;1999.90;957.40;;;3.30;99.90;;;;;;5143036;28;20446;-80
2022/01/26 11:06:37;;;;;;;1999.90;949.57;;;3.40;99.90;;;;;;5143935;28;20511;-79
2022/01/26 11:09:12;;;;;;;1999.90;865.57;;;3.40;99.90;;;;;;5145226;28;20471;-80
2022/01/26 11:12:05;;;;;;;1999.90;899.30;;;3.40;99.90;;;;;;5143734;28;20437;-80
2022/01/26 11:14:43;;;;;;;1999.90;909.13;;;3.40;99.90;;;;;;5142274;28;20938;-80
2022/01/26 11:17:27;;;;;;;1999.90;973.33;;;3.40;99.90;;;;;;5141592;28;20456;-79
2022/01/26 11:19:59;;;;;;;1999.90;960.07;;;3.40;99.90;;;;;;5141848;28;20450;-79
2022/01/26 11:22:30;;;;;;;1999.90;856.50;;;3.40;99.90;;;;;;5141801;28;20503;-80
2022/01/26 11:25:09;;;;;;;1999.90;946.07;;;3.40;99.90;;;;;;5142036;28;20933;-80
2022/01/26 11:27:41;;;;;;;1999.90;858.87;;;3.50;99.90;;;;;;5142076;28;20549;-79
2022/01/26 11:30:21;;;;;;;1999.90;966.97;;;3.50;99.90;;;;;;5142318;28;20559;-79
2022/01/26 11:32:55;;;;;;;1999.90;966.50;;;3.50;99.90;;;;;;5143595;28;20414;-79
2022/01/26 11:35:27;;;;;;;1999.90;919.00;;;3.50;99.90;;;;;;5144356;28;20450;-80
2022/01/26 11:38:15;;;;;;;1999.90;835.60;;;3.50;99.90;;;;;;5142872;28;20462;-81
2022/01/26 11:46:30;;;;;;;1999.90;943.33;;;3.50;99.90;;;;;;5142839;28;20468;-79
2022/01/26 11:49:12;;;;;;;1999.90;916.77;;;3.60;99.90;;;;;;5141896;28;20444;-79
2022/01/26 11:51:46;;;;;;;1999.90;996.63;;;3.60;99.90;;;;;;5143111;28;20457;-79
2022/01/26 11:54:17;;;;;;;1999.90;849.07;;;3.60;99.90;;;;;;5144680;28;20464;-80
2022/01/26 11:57:03;;;;;;;1999.90;941.23;;;3.60;99.90;;;;;;5142819;27;20568;-80
2022/01/26 11:59:35;;;;;;;1999.90;929.03;;;3.60;99.90;;;;;;5146836;27;20420;-79
2022/01/26 12:02:14;;;;;;;1999.90;966.63;;;3.60;99.90;;;;;;5144695;27;20437;-79
2022/01/26 12:04:44;;;;;;;1999.90;890.17;;;3.60;99.90;;;;;;5145276;27;20446;-79
2022/01/26 12:07:21;;;;;;;1999.90;803.90;;;3.60;99.90;;;;;;5144997;27;20530;-79
2022/01/26 12:09:51;;;;;;;1999.90;900.13;;;3.70;99.90;;;;;;5143707;27;20490;-79
2022/01/26 12:12:26;;;;;;;1999.90;909.33;;;3.60;99.90;;;;;;5142009;27;20936;-79
2022/01/26 12:15:10;;;;;;;1999.90;999.90;;;3.70;99.90;;;;;;5144297;27;20506;-79
2022/01/26 12:17:49;;;;;;;1999.90;961.53;;;3.70;99.90;;;;;;5143605;27;20480;-80
2022/01/26 12:32:18;;;;;;;1999.90;925.00;;;3.70;99.90;;;;;;5141296;27;20533;-78
2022/01/26 12:34:53;;;;;;;1999.90;970.00;;;3.70;99.90;;;;;;5140695;27;20542;-79
2022/01/26 12:37:36;;;;;;;1999.90;925.53;;;3.70;99.90;;;;;;5141579;27;20458;-79
2022/01/26 12:43:05;;;;;;;1999.90;786.47;;;3.80;99.90;;;;;;5141930;27;20530;-79
2022/01/26 12:45:55;;;;;;;1999.90;855.20;;;3.80;99.90;;;;;;5142282;27;20941;-79
2022/01/26 12:48:26;;;;;;;1999.90;817.87;;;3.80;99.90;;;;;;5141163;27;20474;-78
2022/01/26 12:50:55;;;;;;;1917.77;617.33;;;3.80;99.90;;;;;;5141140;27;20473;-79
2022/01/26 12:53:25;;;;;;;1827.53;566.80;;;3.80;99.90;;;;;;5140722;27;20445;-79
2022/01/26 12:55:58;;;;;;;1999.90;664.13;;;3.80;99.90;;;;;;5140820;27;20799;-79
2022/01/26 12:58:28;;;;;;;1999.90;706.97;;;3.80;99.90;;;;;;5140713;27;20558;-79
2022/01/26 13:01:01;;;;;;;1732.07;596.20;;;3.80;99.90;;;;;;5140984;27;20454;-79
2022/01/26 13:03:33;;;;;;;1382.50;454.67;;;3.80;99.90;;;;;;5141391;27;20434;-79
2022/01/26 13:06:10;;;;;;;1161.50;397.47;;;3.80;99.90;;;;;;5142094;27;20432;-79
2022/01/26 13:08:47;;;;;;;1926.27;623.03;;;3.80;99.90;;;;;;5141619;27;20422;-79
2022/01/26 13:11:23;;;;;;;1395.43;526.53;;;3.90;99.90;;;;;;5142744;27;20513;-79
2022/01/26 13:14:11;;;;;;;865.43;317.03;;;3.90;99.90;;;;;;5142589;27;20457;-79
2022/01/26 13:16:44;;;;;;;1732.97;561.27;;;3.90;99.90;;;;;;5141469;27;20507;-79
2022/01/26 13:22:36;;;;;;;1461.07;496.10;;;3.90;99.90;;;;;;5137122;27;20449;-80
2022/01/26 13:25:24;;;;;;;1477.10;502.43;;;3.90;99.90;;;;;;5140893;27;20852;-79
2022/01/26 13:30:59;;;;;;;1254.53;433.03;;;3.90;99.90;;;;;;5141975;27;20477;-79
2022/01/26 13:36:39;;;;;;;1566.17;509.13;;;4.00;99.90;;;;;;5128616;27;20546;-80
2022/01/26 13:39:19;;;;;;;1299.83;496.70;;;4.00;99.90;;;;;;5142052;27;20422;-79
2022/01/26 13:42:09;;;;;;;1706.80;509.07;;;4.00;99.90;;;;;;5140275;27;20453;-79
2022/01/26 13:44:52;;;;;;;1826.20;559.90;;;4.00;99.90;;;;;;5140064;27;20439;-79
2022/01/26 13:47:38;;;;;;;1442.10;443.37;;;4.00;99.90;;;;;;5139898;27;20470;-79
2022/01/26 13:50:19;;;;;;;1548.13;540.37;;;4.00;99.90;;;;;;5141494;27;20482;-79
2022/01/26 13:52:54;;;;;;;1713.87;571.50;;;4.00;99.90;;;;;;5141572;27;20435;-79
2022/01/26 13:58:38;;;;;;;1181.53;403.47;;;4.00;99.90;;;;;;5097042;27;20560;-79
2022/01/26 14:01:16;;;;;;;1485.40;501.20;;;4.10;99.90;;;;;;5139384;27;20443;-80
2022/01/26 14:03:47;;;;;;;1547.90;509.10;;;4.10;99.90;;;;;;5142320;27;20439;-79
2022/01/26 14:06:16;;;;;;;882.73;323.10;;;4.10;99.90;;;;;;5141878;27;20482;-79
2022/01/26 14:08:45;;;;;;;827.63;331.87;;;4.10;99.90;;;;;;5140221;27;20445;-79
2022/01/26 14:11:14;;;;;;;1999.90;591.07;;;4.10;99.90;;;;;;5141904;27;21005;-79
2022/01/26 14:13:44;;;;;;;924.33;357.90;;;4.20;99.90;;;;;;5140496;27;20431;-79
2022/01/26 14:16:16;;;;;;;1060.87;310.87;;;4.20;99.90;;;;;;5139275;27;20497;-80
2022/01/26 14:18:49;;;;;;;1289.73;410.17;;;4.20;99.90;;;;;;5139626;27;20438;-79
2022/01/26 14:26:48;;;;;;;1184.30;394.07;;;4.20;99.90;;;;;;5141811;27;20539;-80
2022/01/26 14:29:32;;;;;;;1323.47;417.07;;;4.30;99.90;;;;;;5140578;27;20479;-79
2022/01/26 14:40:49;;;;;;;1156.70;369.00;;;4.30;99.90;;;;;;5139314;27;20446;-79
2022/01/26 14:51:54;;;;;;;1848.27;570.63;;;4.30;99.90;;;;;;5139199;27;20503;-80
2022/01/26 15:00:47;;;;;;;1975.83;612.33;;;4.40;99.90;;;;;;5119493;27;20853;-80